Tiempo atmosférico en la estación meteorológica de Espiel, Córdoba (465 m.)

Fecha
DESCASC
Temp. máxima en grados centígrados (hora)
DESCASC
Temp. mínima en grados centígrados (hora)
DESCASC
Temp. media en grados centígrados
DESCASC
Racha de viento máxima en m/sg (hora)
DESCASC
Velocidad máxima media en intervalos de 10 minutos(hora)
DESCASC
Precipitaciones diarias en mm
DESCASC
Precipitaciones de 00:00 a 06:00 en mm
DESCASC
Precipitaciones de 06:00 a 12:00 en mm
DESCASC
Precipitaciones de 12:00 a 18:00 en mm
DESCASC
Precipitaciones de 18:00 a 24:00 en mm
DESCASC
19-10-2017 20.5 (17:10) 11.1 (08:30) 15.8 8.89 (17:50) 4.44 (18:40) 0.2 0 0 0 0.2
18-10-2017 18.7 (16:40) 13.8 (22:00) 16.3 7.22 (16:50) 3.33 (16:50) 32.4 20.6 11.6 0.2 0
17-10-2017 23.5 (13:30) 14.7 (22:00) 19.1 8.06 (17:20) 3.89 (17:10) 30.6 0 0 9.4 21.2
16-10-2017 29.1 (16:00) 11.2 (08:50) 20.2 6.11 (14:40) 2.78 (14:10) 0 0 0 0 0
15-10-2017 31.5 (16:40) 12.1 (00:00) 21.8 6.94 (17:50) 3.33 (14:50) 0 0 0 0 0
14-10-2017 32.7 (16:00) 11.7 (00:00) 22.2 5.28 (16:20) 3.06 (16:50) 0 0 0 0 0
13-10-2017 31.9 (15:50) 10.8 (00:00) 21.3 6.11 (15:50) 3.33 (16:00) 0 0 0 0 0
12-10-2017 32.5 (17:00) 12.6 (00:00) 22.6 6.94 (16:30) 3.61 (16:30) 0 0 0 0 0
11-10-2017 31.5 (17:10) 9.3 (00:00) 20.4 5.56 (13:20) 2.5 (13:40) 0 0 0 0 0
10-10-2017 30.8 (16:40) 8.8 (00:00) 19.8 6.94 (16:50) 3.06 (16:50) 0 0 0 0 0
09-10-2017 31.5 (16:10) 8.9 (00:00) 20.2 5.56 (18:10) 2.5 (18:00) 0 0 0 0 0
08-10-2017 31 (16:50) 14.3 (00:00) 22.7 5.56 (16:00) 3.33 (17:20) 0 0 0 0 0
07-10-2017 32.5 (16:40) 11.5 (00:00) 22 6.11 (18:50) 2.78 (18:40) 0 0 0 0 0
06-10-2017 33.7 (16:40) 11.3 (00:00) 22.5 7.78 (16:10) 3.89 (17:10) 0 0 0 0 0
05-10-2017 31.8 (17:40) 13.9 (00:00) 22.8 7.22 (13:20) 2.78 (14:00) 0 0 0 0 0
04-10-2017 31.6 (17:00) 15.3 (00:00) 23.5 6.39 (20:00) 2.78 (12:30) 0 0 0 0 0
03-10-2017 32.3 (17:50) 13.5 (00:00) 22.9 6.11 (15:10) 2.78 (18:20) 0 0 0 0 0
02-10-2017 32 (17:10) 13.7 (00:00) 22.8 8.61 (16:20) 3.61 (15:50) 0 0 0 0 0
01-10-2017 31.8 (16:30) 14 (00:00) 22.9 6.94 (19:10) 3.33 (19:30) 0 0 0 0 0
30-09-2017 31.3 (16:50) 13 (00:00) 22.1 5 (19:10) 2.5 (17:30) 0 0 0 0 0
29-09-2017 31.2 (17:10) 14.6 (00:00) 22.9 6.39 (17:40) 2.78 (17:30) 0 0 0 0 0
28-09-2017 29.9 (17:30) 14.9 (00:00) 22.4 6.94 (15:00) 3.33 (18:00) 0 0 0 0 0
27-09-2017 26.7 (16:30) 11.1 (00:00) 18.9 6.11 (12:10) 2.5 (12:10) 0 0 0 0 0
26-09-2017 31.2 (16:50) 8.2 (00:00) 19.7 6.39 (17:00) 3.61 (17:00) 0 0 0 0 0
25-09-2017 31.1 (17:00) 11 (00:00) 21.1 8.33 (17:20) 4.17 (15:10) 0 0 0 0 0
24-09-2017 31 (17:10) 13.5 (00:00) 22.3 5.28 (17:00) 2.78 (17:00) 0 0 0 0 0
23-09-2017 30.3 (17:30) 14.5 (00:00) 22.4 5.28 (17:40) 2.5 (17:40) 0 0 0 0 0
22-09-2017 30.4 (17:10) 11.3 (00:00) 20.8 5 (14:50) 2.5 (14:40) 0 0 0 0 0
21-09-2017 30.5 (17:30) 10.7 (00:00) 20.6 5.28 (17:10) 2.5 (18:30) 0 0 0 0 0
20-09-2017 30.8 (17:20) 9.5 (00:00) 20.1 4.72 (16:40) 2.22 (18:30) 0 0 0 0 0

Gráficas

Temp. máximas Temp. mínimas Temp. medias Precipitaciones Rachas de viento máximas Velocidades máximas media en intervalos de 10 minutos

Datos horarios

Fecha y hora oficial Temperatura (ºC) Velocidad del viento (km/h) Dirección del viento Racha (km/h) Dirección de racha Precipitación (mm) Presión (hPa) Tendencia (hPa) Humedad (%)
2017-10-19 23:00:00 14.1 3 Este 6 Nordeste 0 -- -- 81
2017-10-19 22:00:00 16.3 4 Nordeste 8 Norte 0 -- -- 67
2017-10-19 21:00:00 16.6 3 Nordeste 13 Norte 0 -- -- 63
2017-10-19 20:00:00 17.1 5 Nordeste 23 Norte 0.2 -- -- 54
2017-10-19 19:00:00 18.9 13 Norte 28 Norte 0 -- -- 46
2017-10-19 18:00:00 20.1 14 Norte 32 Norte 0 -- -- 44
2017-10-19 17:00:00 20.3 15 Norte 27 Noroeste 0 -- -- 44
2017-10-19 16:00:00 20 13 Norte 28 Norte 0 -- -- 44
2017-10-19 15:00:00 19.7 13 Norte 25 Norte 0 -- -- 44
2017-10-19 14:00:00 18.6 11 Norte 20 Norte 0 -- -- 50
2017-10-19 13:00:00 17.9 6 Norte 13 Noroeste 0 -- -- 60
2017-10-19 12:00:00 15.8 4 Este 10 Norte 0 -- -- 72
2017-10-19 11:00:00 15.4 6 Norte 11 Noroeste 0 -- -- 75
2017-10-19 10:00:00 13.9 3 Noroeste 6 Noroeste 0 -- -- 86
2017-10-19 09:00:00 11.8 0 Calma 3 Este 0 -- -- 95
2017-10-19 08:00:00 11.4 3 Este 5 Nordeste 0 -- -- 91
2017-10-19 07:00:00 12.7 3 Sudeste 7 Sudeste 0 -- -- 88
2017-10-19 06:00:00 13.5 4 Nordeste 9 Nordeste 0 -- -- 87
2017-10-19 05:00:00 14 0 Calma 6 Este 0 -- -- 89
2017-10-19 04:00:00 14.1 3 Nordeste 6 Nordeste 0 -- -- 87
2017-10-19 03:00:00 14.4 3 Nordeste 4 Este 0 -- -- 89
2017-10-19 02:00:00 14.3 3 Nordeste 5 Norte 0 -- -- 89
2017-10-19 01:00:00 14.4 3 Nordeste 8 Nordeste 0 -- -- 88
2017-10-19 00:00:00 14.6 3 Este 8 Nordeste 0 -- -- 86
2017-10-18 23:00:00 14.7 2 Norte 16 Noroeste 0 -- -- 87
2017-10-18 22:00:00 13.8 0 Calma 10 Oeste 0 -- -- 88
2017-10-18 21:00:00 14.7 0 Calma 14 Noroeste 0 -- -- 83
2017-10-18 20:00:00 15.4 4 Noroeste 15 Oeste 0 -- -- 80
2017-10-18 19:00:00 16.7 8 Noroeste 18 Norte 0 -- -- 71
2017-10-18 18:00:00 16.4 6 Oeste 20 Oeste 0 -- -- 76
2017-10-18 17:00:00 17.6 9 Oeste 26 Oeste 0 -- -- 71
2017-10-18 16:00:00 18 11 Oeste 23 Oeste 0 -- -- 71
2017-10-18 15:00:00 16.9 6 Noroeste 12 Oeste 0 -- -- 71
2017-10-18 14:00:00 15.9 8 Norte 17 Norte 0.2 -- -- 77
2017-10-18 13:00:00 16 9 Norte 20 Noroeste 0 -- -- 78
2017-10-18 12:00:00 15.5 5 Noroeste 15 Noroeste 0 -- -- 81
2017-10-18 11:00:00 14.9 10 Noroeste 21 Noroeste 0.2 -- -- 85
2017-10-18 10:00:00 14.6 4 Oeste 13 Noroeste 1.6 -- -- 92
2017-10-18 09:00:00 14.6 4 Noroeste 9 Noroeste 2 -- -- 93
2017-10-18 08:00:00 14.8 3 Noroeste 13 Sudoeste 6.4 -- -- 94
2017-10-18 07:00:00 14.9 4 Sudoeste 20 Noroeste 1.4 -- -- 94
2017-10-18 06:00:00 15.2 6 Oeste 24 Oeste 6.4 -- -- 93
2017-10-18 05:00:00 14.8 7 Sudoeste 25 Sudoeste 7 -- -- 91
2017-10-18 04:00:00 15.4 6 Sur 17 Sur 0.2 -- -- 93
2017-10-18 03:00:00 15.4 0 Calma 17 Sudeste 0.6 -- -- 95
2017-10-18 02:00:00 15.4 0 Calma 13 Sudeste 5 -- -- 95
2017-10-18 01:00:00 14.7 2 Sur 16 Sudoeste 1.4 -- -- 92
2017-10-18 00:00:00 15.8 3 Sudeste 9 Sur 0.2 -- -- 93
2017-10-17 23:00:00 15.4 4 Sur 16 Sur 1.8 -- -- 92
2017-10-17 22:00:00 14.7 6 Sur 18 Sur 4.8 -- -- 91
2017-10-17 21:00:00 15 2 Nordeste 27 Noroeste 10.6 -- -- 90
2017-10-17 20:00:00 16 0 Calma 10 Norte 2.8 -- -- 92
2017-10-17 19:00:00 16.4 5 Sudoeste 10 Sur 1 -- -- 92
2017-10-17 18:00:00 16.4 4 Norte 29 Nordeste 7.8 -- -- 90
2017-10-17 17:00:00 19.5 7 Norte 16 Norte 0 -- -- 81
2017-10-17 16:00:00 18.6 2 Sudeste 18 Noroeste 1.6 -- -- 83
2017-10-17 15:00:00 21.8 8 Noroeste 19 Sudoeste 0 -- -- 61
2017-10-17 14:00:00 22.9 6 Oeste 22 Sudoeste 0 -- -- 52
2017-10-17 13:00:00 22.7 8 Sudoeste 18 Sudoeste 0 -- -- 49
2017-10-17 12:00:00 21.2 3 Sur 12 Sudoeste 0 -- -- 54
2017-10-17 11:00:00 20.2 4 Sur 13 Sudoeste 0 -- -- 55
2017-10-17 10:00:00 18.9 5 Sur 13 Sur 0 -- -- 54
2017-10-17 09:00:00 17.9 3 Sur 12 Sudoeste 0 -- -- 55
2017-10-17 08:00:00 18.1 2 Sur 10 Sudoeste 0 -- -- 57
2017-10-17 07:00:00 18.5 6 Sudoeste 18 Sur 0 -- -- 57
2017-10-17 06:00:00 18 3 Sur 14 Sur 0 -- -- 61
2017-10-17 05:00:00 18 5 Sur 12 Sudeste 0 -- -- 59
2017-10-17 04:00:00 18 6 Sur 13 Sudeste 0 -- -- 58
2017-10-17 03:00:00 18.3 6 Sur 13 Sur 0 -- -- 56
2017-10-17 02:00:00 17.1 5 Sur 9 Sudoeste 0 -- -- 57
2017-10-17 01:00:00 17 4 Sur 8 Sur 0 -- -- 57
2017-10-17 00:00:00 16.7 5 Sur 8 Sur 0 -- -- 54
2017-10-16 23:00:00 16.5 3 Sur 6 Sur 0 -- -- 54
2017-10-16 22:00:00 19.2 2 Este 9 Sudoeste 0 -- -- 43
2017-10-16 21:00:00 20.3 4 Sur 10 Sur 0 -- -- 41
2017-10-16 20:00:00 23 2 Sur 13 Oeste 0 -- -- 38
2017-10-16 19:00:00 27 5 Oeste 15 Oeste 0 -- -- 34
2017-10-16 18:00:00 28.7 5 Sudoeste 18 Oeste 0 -- -- 27
2017-10-16 17:00:00 28.9 10 Sudoeste 17 Sur 0 -- -- 28
2017-10-16 16:00:00 29.1 8 Oeste 16 Sudoeste 0 -- -- 25
2017-10-16 15:00:00 28.3 9 Sudoeste 22 Oeste 0 -- -- 25
2017-10-16 14:00:00 27.8 9 Oeste 19 Sudoeste 0 -- -- 26
2017-10-16 13:00:00 26.4 7 Sur 18 Noroeste 0 -- -- 28
2017-10-16 12:00:00 24.7 7 Sudoeste 21 Sur 0 -- -- 36
2017-10-16 11:00:00 21 3 Oeste 6 Oeste 0 -- -- 53
2017-10-16 10:00:00 16.6 0 Calma 6 Sur 0 -- -- 76
2017-10-16 09:00:00 11.4 0 Calma 4 Este 0 -- -- 89
2017-10-16 08:00:00 11.7 0 Calma 5 Este 0 -- -- 85
2017-10-16 07:00:00 12.4 3 Nordeste 6 Sudeste 0 -- -- 76
2017-10-16 06:00:00 14.3 3 Nordeste 8 Sur 0 -- -- 67
2017-10-16 05:00:00 14.2 2 Este 7 Oeste 0 -- -- 64
2017-10-16 04:00:00 14.2 2 Sudeste 8 Sudeste 0 -- -- 53
2017-10-16 03:00:00 13.6 4 Sur 9 Sur 0 -- -- 53
2017-10-16 02:00:00 14.8 0 Calma 6 Sur 0 -- -- 49
2017-10-16 01:00:00 16.3 2 Sur 5 Sur 0 -- -- 48
2017-10-16 00:00:00 17.3 0 Calma 6 Sur 0 -- -- 44
2017-10-15 23:00:00 19.4 0 Calma 9 Sur 0 -- -- 37
2017-10-15 22:00:00 21.4 4 Sur 10 Sudoeste 0 -- -- 34
2017-10-15 21:00:00 24.4 4 Sur 20 Sudoeste 0 -- -- 29
2017-10-15 20:00:00 26.7 8 Sudoeste 24 Oeste 0 -- -- 27
2017-10-15 19:00:00 28.8 8 Oeste 22 Sudoeste 0 -- -- 25
2017-10-15 18:00:00 30.7 11 Oeste 25 Oeste 0 -- -- 24
2017-10-15 17:00:00 31.5 8 Oeste 18 Sudoeste 0 -- -- 23
2017-10-15 16:00:00 31.2 8 Sudoeste 23 Sudoeste 0 -- -- 23
2017-10-15 15:00:00 30.8 10 Sudoeste 21 Oeste 0 -- -- 23
2017-10-15 14:00:00 30.3 10 Oeste 24 Oeste 0 -- -- 23
2017-10-15 13:00:00 29.2 9 Sudoeste 21 Sudoeste 0 -- -- 24
2017-10-15 12:00:00 26.7 5 Sudoeste 12 Sur 0 -- -- 30
2017-10-15 11:00:00 21.6 3 Noroeste 6 Noroeste 0 -- -- 48
2017-10-15 10:00:00 17.3 0 Calma 3 Nordeste 0 -- -- 66
2017-10-15 09:00:00 12.3 0 Calma 3 Este 0 -- -- 75
2017-10-15 08:00:00 12.5 0 Calma 2 Este 0 -- -- 74
2017-10-15 07:00:00 13.3 0 Calma 5 Nordeste 0 -- -- 69
2017-10-15 06:00:00 14.2 3 Nordeste 6 Sur 0 -- -- 63
2017-10-15 05:00:00 14.1 2 Este 5 Nordeste 0 -- -- 67
2017-10-15 04:00:00 15 3 Nordeste 6 Sur 0 -- -- 58
2017-10-15 03:00:00 16.2 3 Este 4 Sur 0 -- -- 59
2017-10-15 02:00:00 17.7 2 Norte 5 Nordeste 0 -- -- 46
2017-10-15 01:00:00 20.3 4 Nordeste 7 Sur 0 -- -- 44
2017-10-15 00:00:00 21.3 2 Sudoeste 9 Norte 0 -- -- 41
2017-10-14 23:00:00 22.5 0 Calma 9 Sur 0 -- -- 37
2017-10-14 22:00:00 23 4 Nordeste 7 Noroeste 0 -- -- 45
2017-10-14 21:00:00 23.3 3 Este 4 Oeste 0 -- -- 36
2017-10-14 20:00:00 26.1 3 Sudeste 7 Sur 0 -- -- 31
2017-10-14 19:00:00 29.5 3 Sudoeste 8 Oeste 0 -- -- 28
2017-10-14 18:00:00 30.4 2 Nordeste 15 Norte 0 -- -- 24
2017-10-14 17:00:00 31.3 8 Norte 19 Norte 0 -- -- 23
2017-10-14 16:00:00 32.7 7 Noroeste 16 Norte 0 -- -- 22
2017-10-14 15:00:00 32.4 5 Noroeste 11 Oeste 0 -- -- 23
2017-10-14 14:00:00 31.4 4 Oeste 12 Sur 0 -- -- 24
2017-10-14 13:00:00 26 3 Oeste 5 Oeste 0 -- -- 38
2017-10-14 12:00:00 23.3 2 Sudoeste 6 Noroeste 0 -- -- 47
2017-10-14 11:00:00 20.2 3 Noroeste 6 Norte 0 -- -- 58
2017-10-14 10:00:00 16.1 0 Calma 4 Sur 0 -- -- 71
2017-10-14 09:00:00 12.2 2 Nordeste 4 Sur 0 -- -- 81
2017-10-14 08:00:00 11.8 0 Calma 3 Sur 0 -- -- 78
2017-10-14 07:00:00 12.3 0 Calma 3 Sudeste 0 -- -- 78
2017-10-14 06:00:00 13 0 Calma 2 Este 0 -- -- 76
2017-10-14 05:00:00 13.3 0 Calma 2 Sur 0 -- -- 72
2017-10-14 04:00:00 14.1 0 Calma 3 Sur 0 -- -- 70
2017-10-14 03:00:00 15.2 2 Nordeste 3 Este 0 -- -- 65
2017-10-14 02:00:00 16.4 0 Calma 4 Sur 0 -- -- 60
2017-10-14 01:00:00 16.6 0 Calma 2 Noroeste 0 -- -- 60
2017-10-14 00:00:00 16.3 0 Calma 4 Sur 0 -- -- 59
2017-10-13 23:00:00 18.1 0 Calma 6 Norte 0 -- -- 50
2017-10-13 22:00:00 19.4 2 Este 6 Nordeste 0 -- -- 42
2017-10-13 21:00:00 21.5 3 Sur 8 Sudoeste 0 -- -- 37
2017-10-13 20:00:00 25.4 4 Sur 6 Sur 0 -- -- 31
2017-10-13 19:00:00 29.1 3 Sudoeste 11 Sur 0 -- -- 28
2017-10-13 18:00:00 29.3 6 Oeste 16 Sudoeste 0 -- -- 27
2017-10-13 17:00:00 30.4 4 Sudoeste 16 Oeste 0 -- -- 27
2017-10-13 16:00:00 31.6 12 Noroeste 22 Oeste 0 -- -- 24
2017-10-13 15:00:00 31.1 11 Noroeste 20 Noroeste 0 -- -- 23
2017-10-13 14:00:00 29.6 4 Oeste 18 Oeste 0 -- -- 24
2017-10-13 13:00:00 29.5 9 Oeste 18 Oeste 0 -- -- 23
2017-10-13 12:00:00 27.6 5 Sudoeste 13 Oeste 0 -- -- 26
2017-10-13 11:00:00 21.8 3 Sudoeste 6 Sudeste 0 -- -- 50
2017-10-13 10:00:00 16.2 0 Calma 3 Sur 0 -- -- 65
2017-10-13 09:00:00 11.2 0 Calma 2 Sur 0 -- -- 79
2017-10-13 08:00:00 10.9 0 Calma 3 Sur 0 -- -- 77
2017-10-13 07:00:00 11.3 0 Calma 3 Nordeste 0 -- -- 75
2017-10-13 06:00:00 11.6 0 Calma 3 Nordeste 0 -- -- 72
2017-10-13 05:00:00 12.2 0 Calma 3 Sur 0 -- -- 71
2017-10-13 04:00:00 13 0 Calma 2 Este 0 -- -- 68
2017-10-13 03:00:00 13.5 0 Calma 2 Sur 0 -- -- 65
2017-10-13 02:00:00 14.3 0 Calma 4 Nordeste 0 -- -- 57
2017-10-13 01:00:00 15.2 0 Calma 4 Norte 0 -- -- 51
2017-10-13 00:00:00 16.2 0 Calma 2 Oeste 0 -- -- 54
2017-10-12 23:00:00 17.9 0 Calma 3 Este 0 -- -- 44
2017-10-12 22:00:00 20.9 0 Calma 8 Sudeste 0 -- -- 37
2017-10-12 21:00:00 22.4 4 Sur 7 Sur 0 -- -- 35
2017-10-12 20:00:00 25 3 Sur 11 Oeste 0 -- -- 31
2017-10-12 19:00:00 30.3 4 Oeste 17 Oeste 0 -- -- 27
2017-10-12 18:00:00 31.2 10 Oeste 25 Oeste 0 -- -- 25
2017-10-12 17:00:00 32.5 6 Oeste 25 Oeste 0 -- -- 24
2017-10-12 16:00:00 31.3 7 Sudoeste 21 Sur 0 -- -- 24
2017-10-12 15:00:00 29.2 4 Sudoeste 18 Oeste 0 -- -- 25
2017-10-12 14:00:00 27.6 5 Oeste 17 Oeste 0 -- -- 29
2017-10-12 13:00:00 28.9 9 Oeste 18 Oeste 0 -- -- 27
2017-10-12 12:00:00 25.8 5 Sudoeste 15 Sur 0 -- -- 32
2017-10-12 11:00:00 23.4 4 Sudoeste 8 Sudoeste 0 -- -- 44
2017-10-12 10:00:00 17.2 0 Calma 4 Sur 0 -- -- 65
2017-10-12 09:00:00 13.6 0 Calma 3 Nordeste 0 -- -- 75
2017-10-12 08:00:00 13.4 0 Calma 2 Sudeste 0 -- -- 77
2017-10-12 07:00:00 12.6 0 Calma 3 Sudeste 0 -- -- 77
2017-10-12 06:00:00 13 0 Calma 3 Sur 0 -- -- 72
2017-10-12 05:00:00 13.6 0 Calma 3 Noroeste 0 -- -- 66
2017-10-12 04:00:00 14.4 0 Calma 4 Nordeste 0 -- -- 61
2017-10-12 03:00:00 14.8 0 Calma 6 Este 0 -- -- 60
2017-10-12 02:00:00 15.7 2 Noroeste 9 Sudeste 0 -- -- 58
2017-10-12 01:00:00 16.4 2 Sur 5 Noroeste 0 -- -- 49
2017-10-12 00:00:00 17.7 3 Sudeste 6 Sudoeste 0 -- -- 48
2017-10-11 23:00:00 16.9 2 Nordeste 5 Sur 0 -- -- 51
2017-10-11 22:00:00 18.2 2 Sur 5 Noroeste 0 -- -- 38
2017-10-11 21:00:00 19.8 0 Calma 5 Sur 0 -- -- 31
2017-10-11 20:00:00 23.8 3 Sur 9 Oeste 0 -- -- 29
2017-10-11 19:00:00 29.8 3 Oeste 11 Oeste 0 -- -- 24
2017-10-11 18:00:00 31.1 4 Sudoeste 10 Sudoeste 0 -- -- 20
2017-10-11 17:00:00 31.3 6 Oeste 13 Oeste 0 -- -- 21
2017-10-11 16:00:00 31 5 Oeste 14 Oeste 0 -- -- 20
2017-10-11 15:00:00 30.4 6 Oeste 18 Sudoeste 0 -- -- 23
2017-10-11 14:00:00 29 5 Sudoeste 20 Sudoeste 0 -- -- 27
2017-10-11 13:00:00 27.4 6 Oeste 12 Noroeste 0 -- -- 32
2017-10-11 12:00:00 23.9 2 Sudoeste 6 Sudoeste 0 -- -- 41
2017-10-11 11:00:00 19.5 3 Sudoeste 6 Sudoeste 0 -- -- 57
2017-10-11 10:00:00 15.3 0 Calma 3 Oeste 0 -- -- 67
2017-10-11 09:00:00 9.6 2 Sur 4 Sur 0 -- -- 85
2017-10-11 08:00:00 9.5 0 Calma 3 Nordeste 0 -- -- 84
2017-10-11 07:00:00 9.9 0 Calma 3 Sur 0 -- -- 82
2017-10-11 06:00:00 10.4 0 Calma 2 Sudeste 0 -- -- 80
2017-10-11 05:00:00 10.8 0 Calma 3 Sur 0 -- -- 77
2017-10-11 04:00:00 11.2 0 Calma 2 Sudeste 0 -- -- 73
2017-10-11 03:00:00 11.7 0 Calma 4 Sudeste 0 -- -- 72
2017-10-11 02:00:00 12.9 3 Sur 8 Este 0 -- -- 66
2017-10-11 01:00:00 13.2 0 Calma 3 Nordeste 0 -- -- 59
2017-10-11 00:00:00 14.3 0 Calma 5 Sudeste 0 -- -- 55
2017-10-10 23:00:00 15.7 2 Sur 6 Nordeste 0 -- -- 53
2017-10-10 22:00:00 17.2 2 Norte 5 Norte 0 -- -- 40
2017-10-10 21:00:00 19.4 3 Este 6 Sudeste 0 -- -- 36
2017-10-10 20:00:00 24.6 2 Sudeste 17 Sudoeste 0 -- -- 29
2017-10-10 19:00:00 28.8 5 Oeste 16 Sur 0 -- -- 24
2017-10-10 18:00:00 30.3 7 Oeste 16 Sur 0 -- -- 22
2017-10-10 17:00:00 30.4 6 Oeste 25 Oeste 0 -- -- 22
2017-10-10 16:00:00 29.8 9 Sudoeste 19 Sudoeste 0 -- -- 23
2017-10-10 15:00:00 30.4 9 Oeste 17 Oeste 0 -- -- 23
2017-10-10 14:00:00 29.4 6 Oeste 14 Sudoeste 0 -- -- 27
2017-10-10 13:00:00 27.5 6 Oeste 14 Sudoeste 0 -- -- 31
2017-10-10 12:00:00 24.5 3 Sudoeste 8 Sudoeste 0 -- -- 41
2017-10-10 11:00:00 19.3 2 Oeste 5 Sudoeste 0 -- -- 58
2017-10-10 10:00:00 14.9 0 Calma 3 Oeste 0 -- -- 70
2017-10-10 09:00:00 9.2 0 Calma 4 Sur 0 -- -- 86
2017-10-10 08:00:00 9.2 0 Calma 4 Sur 0 -- -- 83
2017-10-10 07:00:00 9.4 0 Calma 3 Sudeste 0 -- -- 81
2017-10-10 06:00:00 9.9 0 Calma 3 Sur 0 -- -- 78
2017-10-10 05:00:00 10.5 0 Calma 4 Nordeste 0 -- -- 75
2017-10-10 04:00:00 11.3 0 Calma 6 Sur 0 -- -- 72
2017-10-10 03:00:00 12.2 2 Sudoeste 9 Norte 0 -- -- 69
2017-10-10 02:00:00 12.7 0 Calma 2 Sudeste 0 -- -- 64
2017-10-10 01:00:00 13.6 2 Sur 4 Sur 0 -- -- 61
2017-10-10 00:00:00 14.8 0 Calma 2 Sur 0 -- -- 62
2017-10-09 23:00:00 16 0 Calma 4 Noroeste 0 -- -- 56
2017-10-09 22:00:00 17.7 0 Calma 5 Nordeste 0 -- -- 40
2017-10-09 21:00:00 20.3 3 Norte 7 Noroeste 0 -- -- 35
2017-10-09 20:00:00 24.9 4 Sudeste 14 Oeste 0 -- -- 30
2017-10-09 19:00:00 29.1 7 Oeste 20 Noroeste 0 -- -- 27
2017-10-09 18:00:00 30.6 9 Oeste 19 Oeste 0 -- -- 25
2017-10-09 17:00:00 30.9 5 Noroeste 19 Oeste 0 -- -- 24
2017-10-09 16:00:00 31.4 8 Oeste 13 Oeste 0 -- -- 20
2017-10-09 15:00:00 30.4 5 Sudoeste 12 Oeste 0 -- -- 19
2017-10-09 14:00:00 30 6 Oeste 12 Oeste 0 -- -- 21
2017-10-09 13:00:00 27.9 5 Oeste 9 Oeste 0 -- -- 26
2017-10-09 12:00:00 23.7 3 Oeste 6 Sudoeste 0 -- -- 38
2017-10-09 11:00:00 19.4 3 Sudoeste 4 Sudoeste 0 -- -- 54
2017-10-09 10:00:00 15.3 0 Calma 2 Nordeste 0 -- -- 61
2017-10-09 09:00:00 9.2 0 Calma 3 Sudeste 0 -- -- 79
2017-10-09 08:00:00 8.9 0 Calma 3 Sur 0 -- -- 76
2017-10-09 07:00:00 9.2 0 Calma 4 Nordeste 0 -- -- 69
2017-10-09 06:00:00 9.9 0 Calma 3 Nordeste 0 -- -- 70
2017-10-09 05:00:00 10.4 0 Calma 2 Sudeste 0 -- -- 72
2017-10-09 04:00:00 10.9 2 Nordeste 4 Nordeste 0 -- -- 62
2017-10-09 03:00:00 11.9 0 Calma 3 Sur 0 -- -- 71
2017-10-09 02:00:00 12.8 2 Sur 4 Sur 0 -- -- 70
2017-10-09 01:00:00 13.8 0 Calma 4 Sur 0 -- -- 71
2017-10-09 00:00:00 15.1 3 Nordeste 5 Norte 0 -- -- 66
2017-10-08 23:00:00 16.7 0 Calma 5 Nordeste 0 -- -- 65
2017-10-08 22:00:00 19.1 3 Norte 7 Sur 0 -- -- 55
2017-10-08 21:00:00 21.4 4 Sudeste 11 Sur 0 -- -- 51
2017-10-08 20:00:00 25.8 4 Sur 14 Sur 0 -- -- 40
2017-10-08 19:00:00 29.2 5 Sudoeste 15 Oeste 0 -- -- 35
2017-10-08 18:00:00 30.8 8 Oeste 18 Noroeste 0 -- -- 31
2017-10-08 17:00:00 30.9 6 Noroeste 16 Noroeste 0 -- -- 28
2017-10-08 16:00:00 30.2 9 Noroeste 20 Norte 0 -- -- 32
2017-10-08 15:00:00 29.2 6 Oeste 12 Oeste 0 -- -- 34
2017-10-08 14:00:00 27.5 8 Noroeste 13 Noroeste 0 -- -- 37
2017-10-08 13:00:00 26.2 6 Oeste 14 Sudoeste 0 -- -- 43
2017-10-08 12:00:00 24.7 5 Oeste 15 Sudoeste 0 -- -- 47
2017-10-08 11:00:00 22.5 3 Oeste 11 Oeste 0 -- -- 54
2017-10-08 10:00:00 20.2 0 Calma 9 Sudoeste 0 -- -- 65
2017-10-08 09:00:00 15.4 4 Sur 8 Sudoeste 0 -- -- 79
2017-10-08 08:00:00 14.7 4 Sur 6 Sur 0 -- -- 80
2017-10-08 07:00:00 14.9 2 Sur 5 Sudeste 0 -- -- 77
2017-10-08 06:00:00 15.3 4 Sur 6 Sur 0 -- -- 75
2017-10-08 05:00:00 15.6 0 Calma 6 Sudeste 0 -- -- 75
2017-10-08 04:00:00 19.1 4 Sur 12 Sur 0 -- -- 65
2017-10-08 03:00:00 19.9 5 Sudoeste 16 Oeste 0 -- -- 64
2017-10-08 02:00:00 17.8 3 Sudeste 9 Sudeste 0 -- -- 64
2017-10-08 01:00:00 17 4 Sur 5 Sudeste 0 -- -- 62
2017-10-08 00:00:00 18.1 3 Sur 6 Sur 0 -- -- 57
2017-10-07 23:00:00 20.3 3 Sudoeste 8 Sur 0 -- -- 51
2017-10-07 22:00:00 21.2 2 Sudeste 9 Sudeste 0 -- -- 48
2017-10-07 21:00:00 24.9 2 Sudoeste 20 Oeste 0 -- -- 39
2017-10-07 20:00:00 27.4 3 Sudoeste 18 Oeste 0 -- -- 33
2017-10-07 19:00:00 30.1 8 Oeste 22 Oeste 0 -- -- 31
2017-10-07 18:00:00 31.6 8 Oeste 19 Oeste 0 -- -- 26
2017-10-07 17:00:00 32.2 7 Sudoeste 16 Sudoeste 0 -- -- 24
2017-10-07 16:00:00 32 4 Sudoeste 16 Oeste 0 -- -- 23
2017-10-07 15:00:00 30.9 4 Sur 16 Sur 0 -- -- 25
2017-10-07 14:00:00 30.3 5 Sur 17 Sur 0 -- -- 25
2017-10-07 13:00:00 28.8 4 Sudoeste 12 Sudoeste 0 -- -- 28
2017-10-07 12:00:00 25.8 4 Oeste 6 Oeste 0 -- -- 36
2017-10-07 11:00:00 21.6 3 Sudoeste 6 Sudoeste 0 -- -- 54
2017-10-07 10:00:00 17.9 0 Calma 3 Oeste 0 -- -- 66
2017-10-07 09:00:00 11.8 0 Calma 2 Sudeste 0 -- -- 87
2017-10-07 08:00:00 11.7 0 Calma 3 Este 0 -- -- 85
2017-10-07 07:00:00 12.1 3 Sur 4 Sur 0 -- -- 82
2017-10-07 06:00:00 12.7 0 Calma 3 Nordeste 0 -- -- 80
2017-10-07 05:00:00 13.2 0 Calma 4 Sudeste 0 -- -- 77
2017-10-07 04:00:00 13.9 2 Sur 4 Sudeste 0 -- -- 69
2017-10-07 03:00:00 14.8 0 Calma 4 Sudeste 0 -- -- 67
2017-10-07 02:00:00 15.8 3 Sur 5 Norte 0 -- -- 68
2017-10-07 01:00:00 16.8 3 Sudeste 7 Sur 0 -- -- 66
2017-10-07 00:00:00 17.8 0 Calma 4 Nordeste 0 -- -- 59
2017-10-06 23:00:00 19.5 0 Calma 6 Nordeste 0 -- -- 56
2017-10-06 22:00:00 21.9 3 Este 10 Noroeste 0 -- -- 45
2017-10-06 21:00:00 23.9 3 Este 8 Oeste 0 -- -- 41
2017-10-06 20:00:00 28.3 2 Sudeste 18 Oeste 0 -- -- 35
2017-10-06 19:00:00 31.1 11 Oeste 23 Oeste 0 -- -- 31
2017-10-06 18:00:00 32.8 10 Noroeste 23 Sur 0 -- -- 25
2017-10-06 17:00:00 33.5 11 Norte 28 Nordeste 0 -- -- 21
2017-10-06 16:00:00 33 8 Este 26 Norte 0 -- -- 23
2017-10-06 15:00:00 32.5 5 Sudoeste 14 Oeste 0 -- -- 27
2017-10-06 14:00:00 31.4 7 Oeste 12 Oeste 0 -- -- 30
2017-10-06 13:00:00 29.2 6 Oeste 11 Oeste 0 -- -- 34
2017-10-06 12:00:00 25.8 4 Oeste 6 Oeste 0 -- -- 45
2017-10-06 11:00:00 21.3 4 Oeste 7 Oeste 0 -- -- 57
2017-10-06 10:00:00 17.2 0 Calma 4 Oeste 0 -- -- 69
2017-10-06 09:00:00 11.8 0 Calma 3 Sur 0 -- -- 88
2017-10-06 08:00:00 11.3 2 Sudeste 3 Sudeste 0 -- -- 85
2017-10-06 07:00:00 11.5 0 Calma 3 Nordeste 0 -- -- 83
2017-10-06 06:00:00 12 0 Calma 3 Sur 0 -- -- 82
2017-10-06 05:00:00 12.7 0 Calma 2 Sudeste 0 -- -- 80
2017-10-06 04:00:00 13.2 2 Sur 3 Nordeste 0 -- -- 78
2017-10-06 03:00:00 13.7 0 Calma 4 Sudeste 0 -- -- 74
2017-10-06 02:00:00 14.6 0 Calma 4 Norte 0 -- -- 71
2017-10-06 01:00:00 15.7 2 Sur 5 Sur 0 -- -- 66
2017-10-06 00:00:00 16.9 2 Este 5 Nordeste 0 -- -- 56
2017-10-05 23:00:00 17.6 0 Calma 4 Este 0 -- -- 55
2017-10-05 22:00:00 19.9 3 Nordeste 8 Nordeste 0 -- -- 43
2017-10-05 21:00:00 21.6 0 Calma 4 Noroeste 0 -- -- 44
2017-10-05 20:00:00 27.4 0 Calma 12 Noroeste 0 -- -- 36
2017-10-05 19:00:00 31.1 5 Oeste 13 Oeste 0 -- -- 33
2017-10-05 18:00:00 31.8 6 Noroeste 21 Noroeste 0 -- -- 31
2017-10-05 17:00:00 31.4 8 Oeste 17 Oeste 0 -- -- 32
2017-10-05 16:00:00 -- 7 Oeste 23 Sur 0 -- -- --
2017-10-05 15:00:00 30.5 10 Oeste 19 Sudoeste 0 -- -- 39
2017-10-05 14:00:00 28.8 10 Sudeste 26 Sur 0 -- -- 41
2017-10-05 13:00:00 27.8 6 Oeste 18 Sur 0 -- -- 43
2017-10-05 12:00:00 25.4 6 Oeste 10 Sudoeste 0 -- -- 52
2017-10-05 11:00:00 21.7 2 Oeste 6 Oeste 0 -- -- 65
2017-10-05 10:00:00 18.9 0 Calma 4 Oeste 0 -- -- 75
2017-10-05 09:00:00 14.3 0 Calma 3 Nordeste 0 -- -- 92
2017-10-05 08:00:00 14 2 Nordeste 4 Norte 0 -- -- 89
2017-10-05 07:00:00 14.2 0 Calma 4 Sur 0 -- -- 86
2017-10-05 06:00:00 14.8 0 Calma 3 Nordeste 0 -- -- 85
2017-10-05 05:00:00 15.6 2 Nordeste 4 Este 0 -- -- 82
2017-10-05 04:00:00 16.2 0 Calma 4 Nordeste 0 -- -- 79
2017-10-05 03:00:00 17.2 0 Calma 4 Noroeste 0 -- -- 74
2017-10-05 02:00:00 18.2 2 Sur 6 Sur 0 -- -- 69
2017-10-05 01:00:00 20.6 4 Sur 12 Sudoeste 0 -- -- 62
2017-10-05 00:00:00 20.9 4 Sur 9 Sur 0 -- -- 59
2017-10-04 23:00:00 20.7 4 Sur 6 Sur 0 -- -- 61
2017-10-04 22:00:00 23.6 4 Sur 21 Oeste 0 -- -- 53
2017-10-04 21:00:00 25.4 6 Sudoeste 22 Oeste 0 -- -- 49
2017-10-04 20:00:00 27.7 8 Oeste 23 Oeste 0 -- -- 45
2017-10-04 19:00:00 30 5 Oeste 14 Oeste 0 -- -- 38
2017-10-04 18:00:00 30.4 5 Oeste 15 Noroeste 0 -- -- 38
2017-10-04 17:00:00 31.6 7 Oeste 17 Oeste 0 -- -- 36
2017-10-04 16:00:00 30.8 6 Oeste 14 Sudoeste 0 -- -- 36
2017-10-04 15:00:00 30 8 Sudoeste 17 Oeste 0 -- -- 39
2017-10-04 14:00:00 29.3 7 Oeste 20 Sudoeste 0 -- -- 40
2017-10-04 13:00:00 28.3 8 Oeste 17 Sudoeste 0 -- -- 42
2017-10-04 12:00:00 26.2 9 Oeste 18 Oeste 0 -- -- 47
2017-10-04 11:00:00 24.7 6 Sudoeste 13 Sur 0 -- -- 50
2017-10-04 10:00:00 21 3 Sudoeste 10 Sur 0 -- -- 61
2017-10-04 09:00:00 16.3 0 Calma 4 Este 0 -- -- 78
2017-10-04 08:00:00 17.4 2 Oeste 9 Sur 0 -- -- 72
2017-10-04 07:00:00 15.8 4 Sur 9 Sur 0 -- -- 79
2017-10-04 06:00:00 15.5 0 Calma 4 Nordeste 0 -- -- 78
2017-10-04 05:00:00 16.3 2 Norte 4 Sur 0 -- -- 72
2017-10-04 04:00:00 16.8 4 Sur 6 Sur 0 -- -- 71
2017-10-04 03:00:00 17.2 3 Sur 4 Sudeste 0 -- -- 77
2017-10-04 02:00:00 17.6 0 Calma 5 Nordeste 0 -- -- 69
2017-10-04 01:00:00 18.5 0 Calma 4 Noroeste 0 -- -- 69
2017-10-04 00:00:00 19.9 3 Nordeste 9 Sudoeste 0 -- -- 58
2017-10-03 23:00:00 21.1 2 Sur 6 Noroeste 0 -- -- 54
2017-10-03 22:00:00 22 3 Nordeste 6 Sudeste 0 -- -- 51
2017-10-03 21:00:00 23.9 4 Sur 7 Sur 0 -- -- 47
2017-10-03 20:00:00 27.9 3 Sur 15 Oeste 0 -- -- 41
2017-10-03 19:00:00 30.7 6 Oeste 21 Oeste 0 -- -- 38
2017-10-03 18:00:00 32.2 6 Oeste 13 Sudoeste 0 -- -- 33
2017-10-03 17:00:00 32 6 Oeste 19 Oeste 0 -- -- 32
2017-10-03 16:00:00 31.9 8 Oeste 22 Sudoeste 0 -- -- 32
2017-10-03 15:00:00 30.5 9 Sur 19 Oeste 0 -- -- 35
2017-10-03 14:00:00 29.5 5 Oeste 16 Oeste 0 -- -- 39
2017-10-03 13:00:00 27.7 7 Oeste 13 Oeste 0 -- -- 43
2017-10-03 12:00:00 26.2 4 Sudoeste 9 Sudoeste 0 -- -- 47
2017-10-03 11:00:00 22.9 0 Calma 5 Oeste 0 -- -- 58
2017-10-03 10:00:00 19 2 Oeste 4 Oeste 0 -- -- 71
2017-10-03 09:00:00 14 0 Calma 2 Sur 0 -- -- 90
2017-10-03 08:00:00 13.6 0 Calma 2 Este 0 -- -- 87
2017-10-03 07:00:00 14 0 Calma 3 Sur 0 -- -- 85
2017-10-03 06:00:00 14.5 0 Calma 2 Sudeste 0 -- -- 81
2017-10-03 05:00:00 15.1 2 Sudeste 3 Sudeste 0 -- -- 77
2017-10-03 04:00:00 15.7 0 Calma 5 Sudeste 0 -- -- 75
2017-10-03 03:00:00 16.5 2 Sudeste 5 Sudeste 0 -- -- 71
2017-10-03 02:00:00 17.3 3 Este 4 Sudeste 0 -- -- 69
2017-10-03 01:00:00 18.3 2 Sudeste 5 Este 0 -- -- 64
2017-10-03 00:00:00 19.5 3 Sur 5 Este 0 -- -- 61
2017-10-02 23:00:00 21.3 4 Sur 5 Sur 0 -- -- 55
2017-10-02 22:00:00 24.1 4 Sudeste 9 Sudeste 0 -- -- 43
2017-10-02 21:00:00 25.3 6 Sudeste 10 Este 0 -- -- 40
2017-10-02 20:00:00 29 4 Este 21 Nordeste 0 -- -- 33
2017-10-02 19:00:00 30.9 9 Este 22 Sudeste 0 -- -- 30
2017-10-02 18:00:00 31.5 10 Este 24 Sur 0 -- -- 28
2017-10-02 17:00:00 31.7 6 Sur 31 Este 0 -- -- 30
2017-10-02 16:00:00 31.7 10 Este 27 Sudeste 0 -- -- 29
2017-10-02 15:00:00 31 6 Sur 26 Sudeste 0 -- -- 33
2017-10-02 14:00:00 29.8 7 Noroeste 22 Sudeste 0 -- -- 34
2017-10-02 13:00:00 28.4 8 Sudoeste 21 Sur 0 -- -- 36
2017-10-02 12:00:00 27 11 Sudeste 24 Sur 0 -- -- 39
2017-10-02 11:00:00 24 3 Noroeste 7 Oeste 0 -- -- 47
2017-10-02 10:00:00 19.5 2 Oeste 4 Oeste 0 -- -- 59
2017-10-02 09:00:00 14.2 0 Calma 3 Sudeste 0 -- -- 77
2017-10-02 08:00:00 13.9 0 Calma 4 Nordeste 0 -- -- 76
2017-10-02 07:00:00 14.4 2 Sudeste 3 Sudeste 0 -- -- 78
2017-10-02 06:00:00 14.9 0 Calma 5 Sudeste 0 -- -- 70
2017-10-02 05:00:00 15.4 0 Calma 5 Sudeste 0 -- -- 68
2017-10-02 04:00:00 16.8 0 Calma 8 Sur 0 -- -- 63
2017-10-02 03:00:00 17.4 3 Este 6 Nordeste 0 -- -- 61
2017-10-02 02:00:00 18.2 5 Sur 8 Sudeste 0 -- -- 57
2017-10-02 01:00:00 20.4 2 Sur 10 Este 0 -- -- 54
2017-10-02 00:00:00 23.3 6 Este 14 Este 0 -- -- 44
2017-10-01 23:00:00 23.3 4 Sudeste 15 Sudeste 0 -- -- 43
2017-10-01 22:00:00 25.5 5 Sudeste 16 Sudeste 0 -- -- 39
2017-10-01 21:00:00 27 7 Sudeste 13 Nordeste 0 -- -- 35
2017-10-01 20:00:00 28.4 6 Este 25 Este 0 -- -- 32
2017-10-01 19:00:00 30 8 Nordeste 23 Este 0 -- -- 28
2017-10-01 18:00:00 31.3 7 Nordeste 22 Este 0 -- -- 26
2017-10-01 17:00:00 31.5 4 Este 12 Nordeste 0 -- -- 25
2017-10-01 16:00:00 31.7 4 Sudoeste 11 Oeste 0 -- -- 27
2017-10-01 15:00:00 31.2 7 Oeste 14 Noroeste 0 -- -- 28
2017-10-01 14:00:00 30.2 8 Noroeste 13 Noroeste 0 -- -- 30
2017-10-01 13:00:00 28.4 5 Oeste 9 Oeste 0 -- -- 35
2017-10-01 12:00:00 25 3 Oeste 7 Oeste 0 -- -- 44
2017-10-01 11:00:00 21.4 3 Sudoeste 6 Norte 0 -- -- 51
2017-10-01 10:00:00 17.7 3 Noroeste 6 Noroeste 0 -- -- 62
2017-10-01 09:00:00 14.7 0 Calma 5 Norte 0 -- -- 72
2017-10-01 08:00:00 14 4 Nordeste 5 Nordeste 0 -- -- 72
2017-10-01 07:00:00 14.3 4 Nordeste 5 Nordeste 0 -- -- 69
2017-10-01 06:00:00 14.3 0 Calma 5 Este 0 -- -- 67
2017-10-01 05:00:00 14.9 2 Noroeste 6 Nordeste 0 -- -- 65
2017-10-01 04:00:00 15.4 2 Este 5 Nordeste 0 -- -- 62
2017-10-01 03:00:00 15.5 0 Calma 6 Nordeste 0 -- -- 60
2017-10-01 02:00:00 16.3 3 Nordeste 4 Nordeste 0 -- -- 56
2017-10-01 01:00:00 17.7 0 Calma 7 Norte 0 -- -- 54
2017-10-01 00:00:00 18.3 2 Sudoeste 6 Norte 0 -- -- 50
2017-09-30 23:00:00 20.2 0 Calma 7 Nordeste 0 -- -- 48
2017-09-30 22:00:00 22.5 4 Este 17 Nordeste 0 -- -- 48
2017-09-30 21:00:00 24.3 3 Sur 11 Sudoeste 0 -- -- 44
2017-09-30 20:00:00 27.2 3 Sudoeste 18 Oeste 0 -- -- 40
2017-09-30 19:00:00 29 5 Oeste 14 Noroeste 0 -- -- 37
2017-09-30 18:00:00 30.9 6 Noroeste 17 Oeste 0 -- -- 34
2017-09-30 17:00:00 31.2 8 Oeste 14 Oeste 0 -- -- 33
2017-09-30 16:00:00 30.1 6 Oeste 12 Oeste 0 -- -- 34
2017-09-30 15:00:00 29.7 7 Sudoeste 12 Oeste 0 -- -- 33
2017-09-30 14:00:00 28 6 Oeste 12 Noroeste 0 -- -- 38
2017-09-30 13:00:00 26.2 5 Oeste 11 Noroeste 0 -- -- 42
2017-09-30 12:00:00 24.1 5 Oeste 8 Oeste 0 -- -- 48
2017-09-30 11:00:00 21.1 4 Oeste 6 Oeste 0 -- -- 61
2017-09-30 10:00:00 18.1 0 Calma 4 Noroeste 0 -- -- 74
2017-09-30 09:00:00 13.8 0 Calma 2 Nordeste 0 -- -- 92
2017-09-30 08:00:00 13.1 0 Calma 4 Sur 0 -- -- 88
2017-09-30 07:00:00 13.5 0 Calma 3 Sur 0 -- -- 86
2017-09-30 06:00:00 13.9 0 Calma 2 Sur 0 -- -- 84
2017-09-30 05:00:00 14.6 0 Calma 4 Sur 0 -- -- 83
2017-09-30 04:00:00 15.1 0 Calma 4 Nordeste 0 -- -- 81
2017-09-30 03:00:00 15.8 0 Calma 3 Este 0 -- -- 80
2017-09-30 02:00:00 16.7 0 Calma 7 Este 0 -- -- 75
2017-09-30 01:00:00 17.7 5 Este 10 Nordeste 0 -- -- 73
2017-09-30 00:00:00 18.4 0 Calma 3 Nordeste 0 -- -- 63
2017-09-29 23:00:00 20.2 0 Calma 6 Nordeste 0 -- -- 56
2017-09-29 22:00:00 21.6 3 Sudeste 6 Sur 0 -- -- 51
2017-09-29 21:00:00 22.6 2 Sudeste 4 Sudoeste 0 -- -- 49
2017-09-29 20:00:00 27.2 3 Sudoeste 13 Oeste 0 -- -- 42
2017-09-29 19:00:00 29.4 5 Oeste 15 Sudoeste 0 -- -- 38
2017-09-29 18:00:00 30.1 9 Oeste 23 Oeste 0 -- -- 36
2017-09-29 17:00:00 31.1 5 Oeste 12 Oeste 0 -- -- 29
2017-09-29 16:00:00 30.5 6 Oeste 15 Oeste 0 -- -- 31
2017-09-29 15:00:00 29.6 9 Noroeste 16 Oeste 0 -- -- 33
2017-09-29 14:00:00 28.7 6 Oeste 13 Oeste 0 -- -- 34
2017-09-29 13:00:00 27.4 7 Oeste 13 Oeste 0 -- -- 38
2017-09-29 12:00:00 25.8 6 Oeste 11 Oeste 0 -- -- 41
2017-09-29 11:00:00 23.5 3 Noroeste 6 Noroeste 0 -- -- 47
2017-09-29 10:00:00 20.3 0 Calma 4 Sudoeste 0 -- -- 56
2017-09-29 09:00:00 15.4 2 Nordeste 4 Sur 0 -- -- 70
2017-09-29 08:00:00 14.8 0 Calma 3 Norte 0 -- -- 69
2017-09-29 07:00:00 16 0 Calma 5 Sudeste 0 -- -- 62
2017-09-29 06:00:00 18.4 3 Sur 7 Sudeste 0 -- -- 55
2017-09-29 05:00:00 19.6 3 Sur 8 Oeste 0 -- -- 53
2017-09-29 04:00:00 20.6 4 Oeste 10 Sudoeste 0 -- -- 50
2017-09-29 03:00:00 21.3 2 Sudeste 12 Oeste 0 -- -- 50
2017-09-29 02:00:00 21.6 3 Oeste 9 Sudoeste 0 -- -- 47
2017-09-29 01:00:00 22.6 4 Oeste 14 Noroeste 0 -- -- 41
2017-09-29 00:00:00 23.3 4 Oeste 15 Oeste 0 -- -- 41
2017-09-28 23:00:00 23.7 3 Sudoeste 10 Noroeste 0 -- -- 44
2017-09-28 22:00:00 24.4 4 Norte 9 Norte 0 -- -- 45
2017-09-28 21:00:00 24.7 2 Sur 11 Noroeste 0 -- -- 50
2017-09-28 20:00:00 26.4 4 Noroeste 17 Noroeste 0 -- -- 46
2017-09-28 19:00:00 28.5 5 Oeste 18 Oeste 0 -- -- 39
2017-09-28 18:00:00 28.4 12 Noroeste 22 Oeste 0 -- -- 39
2017-09-28 17:00:00 28.4 7 Oeste 16 Sudoeste 0 -- -- 39
2017-09-28 16:00:00 28.7 8 Oeste 21 Oeste 0 -- -- 38
2017-09-28 15:00:00 28.5 11 Sur 25 Sur 0 -- -- 35
2017-09-28 14:00:00 27.9 7 Oeste 14 Oeste 0 -- -- 39
2017-09-28 13:00:00 26.3 6 Oeste 12 Oeste 0 -- -- 45
2017-09-28 12:00:00 24.1 4 Oeste 8 Sudoeste 0 -- -- 52
2017-09-28 11:00:00 21.1 2 Oeste 5 Oeste 0 -- -- 64
2017-09-28 10:00:00 18.1 0 Calma 5 Norte 0 -- -- 70
2017-09-28 09:00:00 15.8 0 Calma 5 Norte 0 -- -- 81
2017-09-28 08:00:00 15.4 0 Calma 3 Sudeste 0 -- -- 81
2017-09-28 07:00:00 15.2 0 Calma 4 Norte 0 -- -- 78
2017-09-28 06:00:00 17.2 0 Calma 3 Nordeste 0 -- -- 73
2017-09-28 05:00:00 18 0 Calma 6 Sudeste 0 -- -- 72
2017-09-28 04:00:00 17.4 3 Norte 6 Nordeste 0 -- -- 72
2017-09-28 03:00:00 17.2 0 Calma 3 Sudeste 0 -- -- 72
2017-09-28 02:00:00 18.4 0 Calma 4 Nordeste 0 -- -- 67
2017-09-28 01:00:00 18.8 0 Calma 4 Nordeste 0 -- -- 65
2017-09-28 00:00:00 19.6 0 Calma 4 Nordeste 0 -- -- 64
2017-09-27 23:00:00 20.6 0 Calma 5 Nordeste 0 -- -- 60
2017-09-27 22:00:00 20.5 0 Calma 5 Sur 0 -- -- 58
2017-09-27 21:00:00 21.9 0 Calma 10 Oeste 0 -- -- 54
2017-09-27 20:00:00 23.7 3 Noroeste 8 Oeste 0 -- -- 50
2017-09-27 19:00:00 24.4 3 Sudoeste 12 Oeste 0 -- -- 48
2017-09-27 18:00:00 25.1 5 Sudoeste 15 Oeste 0 -- -- 47
2017-09-27 17:00:00 26 9 Oeste 15 Oeste 0 -- -- 46
2017-09-27 16:00:00 26.4 6 Oeste 12 Sur 0 -- -- 44
2017-09-27 15:00:00 24.7 5 Sudoeste 18 Oeste 0 -- -- 50
2017-09-27 14:00:00 23.2 9 Oeste 18 Sudoeste 0 -- -- 56
2017-09-27 13:00:00 23.6 7 Sudoeste 22 Sudoeste 0 -- -- 55
2017-09-27 12:00:00 23.8 9 Sudoeste 21 Oeste 0 -- -- 56
2017-09-27 11:00:00 21.9 6 Oeste 13 Oeste 0 -- -- 63
2017-09-27 10:00:00 18.4 2 Sudoeste 5 Sur 0 -- -- 64
2017-09-27 09:00:00 12.7 0 Calma 2 Este 0 -- -- 84
2017-09-27 08:00:00 11.7 0 Calma 4 Este 0 -- -- 82
2017-09-27 07:00:00 12 0 Calma 4 Este 0 -- -- 81
2017-09-27 06:00:00 11.5 0 Calma 4 Este 0 -- -- 79
2017-09-27 05:00:00 11.4 0 Calma 3 Sudeste 0 -- -- 77
2017-09-27 04:00:00 11.8 0 Calma 3 Sudeste 0 -- -- 73
2017-09-27 03:00:00 12 0 Calma 4 Sur 0 -- -- 69
2017-09-27 02:00:00 12.9 0 Calma 3 Sur 0 -- -- 63
2017-09-27 01:00:00 14.3 0 Calma 4 Nordeste 0 -- -- 61
2017-09-27 00:00:00 15.7 3 Nordeste 5 Nordeste 0 -- -- 49
2017-09-26 23:00:00 16.9 2 Sudeste 7 Nordeste 0 -- -- 44
2017-09-26 22:00:00 18.9 2 Este 5 Sudeste 0 -- -- 37
2017-09-26 21:00:00 21 2 Sur 9 Sudoeste 0 -- -- 34
2017-09-26 20:00:00 26.6 6 Oeste 22 Oeste 0 -- -- 29
2017-09-26 19:00:00 29.3 8 Oeste 19 Oeste 0 -- -- 24
2017-09-26 18:00:00 30.6 11 Noroeste 21 Noroeste 0 -- -- 20
2017-09-26 17:00:00 31 13 Norte 23 Norte 0 -- -- 19
2017-09-26 16:00:00 30.3 9 Oeste 15 Oeste 0 -- -- 20
2017-09-26 15:00:00 29.3 6 Noroeste 16 Noroeste 0 -- -- 20
2017-09-26 14:00:00 28 6 Noroeste 14 Norte 0 -- -- 22
2017-09-26 13:00:00 26 8 Noroeste 13 Norte 0 -- -- 28
2017-09-26 12:00:00 23.3 5 Oeste 9 Oeste 0 -- -- 40
2017-09-26 11:00:00 19.3 3 Noroeste 6 Noroeste 0 -- -- 46
2017-09-26 10:00:00 15.9 0 Calma 5 Sur 0 -- -- 51
2017-09-26 09:00:00 9.3 0 Calma 4 Nordeste 0 -- -- 72
2017-09-26 08:00:00 8.3 0 Calma 3 Norte 0 -- -- 71
2017-09-26 07:00:00 9.1 0 Calma 5 Nordeste 0 -- -- 69
2017-09-26 06:00:00 9.6 2 Nordeste 3 Nordeste 0 -- -- 66
2017-09-26 05:00:00 10.2 2 Nordeste 3 Nordeste 0 -- -- 62
2017-09-26 04:00:00 10.8 0 Calma 4 Sudeste 0 -- -- 60
2017-09-26 03:00:00 11.6 0 Calma 3 Nordeste 0 -- -- 59
2017-09-26 02:00:00 12.6 0 Calma 2 Norte 0 -- -- 53
2017-09-26 01:00:00 13.7 2 Sudeste 3 Sur 0 -- -- 49
2017-09-26 00:00:00 15.3 3 Nordeste 6 Nordeste 0 -- -- 44
2017-09-25 23:00:00 17.6 0 Calma 8 Nordeste 0 -- -- 40
2017-09-25 22:00:00 19.4 0 Calma 9 Nordeste 0 -- -- 37
2017-09-25 21:00:00 24.2 5 Nordeste 23 Nordeste 0 -- -- 29
2017-09-25 20:00:00 27.2 13 Norte 27 Nordeste 0 -- -- 24
2017-09-25 19:00:00 29.9 14 Nordeste 27 Nordeste 0 -- -- 22
2017-09-25 18:00:00 30.8 12 Norte 30 Norte 0 -- -- 25
2017-09-25 17:00:00 31.1 14 Norte 27 Noroeste 0 -- -- 28
2017-09-25 16:00:00 30.7 13 Norte 29 Noroeste 0 -- -- 34
2017-09-25 15:00:00 30.5 14 Norte 24 Noroeste 0 -- -- 28
2017-09-25 14:00:00 29.4 9 Norte 20 Norte 0 -- -- 26
2017-09-25 13:00:00 27.6 4 Oeste 10 Sudoeste 0 -- -- 26
2017-09-25 12:00:00 24.8 5 Oeste 10 Oeste 0 -- -- 32
2017-09-25 11:00:00 21.7 3 Sudoeste 9 Noroeste 0 -- -- 35
2017-09-25 10:00:00 18.4 0 Calma 4 Sur 0 -- -- 49
2017-09-25 09:00:00 12.3 0 Calma 4 Sur 0 -- -- 68
2017-09-25 08:00:00 11.2 2 Sur 4 Sur 0 -- -- 75
2017-09-25 07:00:00 12 0 Calma 3 Este 0 -- -- 80
2017-09-25 06:00:00 12.5 0 Calma 3 Sudeste 0 -- -- 75
2017-09-25 05:00:00 13.1 2 Nordeste 3 Nordeste 0 -- -- 72
2017-09-25 04:00:00 13.7 0 Calma 3 Sudeste 0 -- -- 69
2017-09-25 03:00:00 14.9 0 Calma 15 Norte 0 -- -- 66
2017-09-25 02:00:00 15.8 0 Calma 3 Nordeste 0 -- -- 68
2017-09-25 01:00:00 16.4 0 Calma 3 Nordeste 0 -- -- 61
2017-09-25 00:00:00 17.7 3 Sudeste 8 Norte 0 -- -- 59
2017-09-24 23:00:00 18.9 2 Nordeste 7 Nordeste 0 -- -- 51
2017-09-24 22:00:00 20.5 3 Este 5 Sur 0 -- -- 47
2017-09-24 21:00:00 24.5 4 Sur 11 Sudoeste 0 -- -- 40
2017-09-24 20:00:00 27.6 5 Oeste 18 Oeste 0 -- -- 35
2017-09-24 19:00:00 30.1 7 Oeste 15 Noroeste 0 -- -- 29
2017-09-24 18:00:00 30.5 9 Noroeste 17 Oeste 0 -- -- 27
2017-09-24 17:00:00 30.8 10 Noroeste 19 Noroeste 0 -- -- 28
2017-09-24 16:00:00 30.6 8 Oeste 18 Sudoeste 0 -- -- 28
2017-09-24 15:00:00 29.8 5 Sudoeste 13 Noroeste 0 -- -- 34
2017-09-24 14:00:00 28.5 6 Oeste 14 Sudoeste 0 -- -- 39
2017-09-24 13:00:00 27.3 5 Oeste 12 Oeste 0 -- -- 44
2017-09-24 12:00:00 25.5 6 Oeste 12 Oeste 0 -- -- 50
2017-09-24 11:00:00 23.2 4 Sudoeste 9 Sudoeste 0 -- -- 62
2017-09-24 10:00:00 18.9 0 Calma 4 Sudoeste 0 -- -- 75
2017-09-24 09:00:00 14.6 0 Calma 3 Sur 0 -- -- 93
2017-09-24 08:00:00 13.8 3 Nordeste 4 Nordeste 0 -- -- 90
2017-09-24 07:00:00 14 0 Calma 4 Sur 0 -- -- 88
2017-09-24 06:00:00 14 0 Calma 4 Nordeste 0 -- -- 85
2017-09-24 05:00:00 13.8 2 Sudoeste 4 Sudeste 0 -- -- 82
2017-09-24 04:00:00 14.3 0 Calma 3 Este 0 -- -- 80
2017-09-24 03:00:00 15.2 0 Calma 5 Sur 0 -- -- 77
2017-09-24 02:00:00 15.8 0 Calma 4 Nordeste 0 -- -- 74
2017-09-24 01:00:00 17.1 2 Este 7 Este 0 -- -- 72
2017-09-24 00:00:00 17.4 0 Calma 4 Nordeste 0 -- -- 67
2017-09-23 23:00:00 18.8 3 Nordeste 7 Norte 0 -- -- 55
2017-09-23 22:00:00 20.1 3 Nordeste 8 Sudeste 0 -- -- 51
2017-09-23 21:00:00 22.3 2 Sur 10 Oeste 0 -- -- 45
2017-09-23 20:00:00 27.2 4 Oeste 14 Oeste 0 -- -- 38
2017-09-23 19:00:00 29.5 6 Oeste 16 Sudoeste 0 -- -- 31
2017-09-23 18:00:00 30.2 7 Oeste 19 Oeste 0 -- -- 34
2017-09-23 17:00:00 29.9 8 Oeste 14 Noroeste 0 -- -- 32
2017-09-23 16:00:00 29.5 6 Noroeste 15 Noroeste 0 -- -- 33
2017-09-23 15:00:00 28.3 6 Oeste 19 Oeste 0 -- -- 37
2017-09-23 14:00:00 27 7 Oeste 14 Sudoeste 0 -- -- 43
2017-09-23 13:00:00 25.4 6 Oeste 15 Oeste 0 -- -- 49
2017-09-23 12:00:00 24.2 5 Sudoeste 16 Sudoeste 0 -- -- 56
2017-09-23 11:00:00 22.2 6 Sudoeste 13 Sur 0 -- -- 64
2017-09-23 10:00:00 18.8 0 Calma 3 Oeste 0 -- -- 75
2017-09-23 09:00:00 14.7 0 Calma 3 Nordeste 0 -- -- 87
2017-09-23 08:00:00 15 0 Calma 4 Nordeste 0 -- -- 84
2017-09-23 07:00:00 15.7 2 Norte 5 Sudeste 0 -- -- 81
2017-09-23 06:00:00 15.3 3 Sudeste 6 Sudeste 0 -- -- 77
2017-09-23 05:00:00 15.9 2 Sur 9 Sudoeste 0 -- -- 72
2017-09-23 04:00:00 17.5 4 Sudoeste 8 Sudoeste 0 -- -- 70
2017-09-23 03:00:00 17.8 4 Sur 14 Sur 0 -- -- 67
2017-09-23 02:00:00 17.7 3 Sudoeste 12 Sudoeste 0 -- -- 62
2017-09-23 01:00:00 17.1 4 Sudeste 7 Sudoeste 0 -- -- 55
2017-09-23 00:00:00 17.9 4 Sur 9 Sur 0 -- -- 53
2017-09-22 23:00:00 17.4 0 Calma 5 Nordeste 0 -- -- 48
2017-09-22 22:00:00 19 3 Nordeste 5 Nordeste 0 -- -- 41
2017-09-22 21:00:00 21.4 3 Sudeste 9 Sudoeste 0 -- -- 37
2017-09-22 20:00:00 26.8 4 Oeste 18 Oeste 0 -- -- 30
2017-09-22 19:00:00 29.4 7 Oeste 17 Oeste 0 -- -- 28
2017-09-22 18:00:00 30.3 7 Oeste 15 Sudoeste 0 -- -- 25
2017-09-22 17:00:00 30.3 7 Oeste 15 Sudoeste 0 -- -- 26
2017-09-22 16:00:00 30 7 Oeste 16 Oeste 0 -- -- 27
2017-09-22 15:00:00 29.3 8 Sudoeste 18 Sudoeste 0 -- -- 29
2017-09-22 14:00:00 28.6 6 Oeste 13 Oeste 0 -- -- 31
2017-09-22 13:00:00 27.3 6 Sudoeste 15 Sudoeste 0 -- -- 34
2017-09-22 12:00:00 25.2 5 Sudoeste 10 Sur 0 -- -- 37
2017-09-22 11:00:00 20.7 2 Sudoeste 6 Oeste 0 -- -- 55
2017-09-22 10:00:00 18.2 0 Calma 4 Sudoeste 0 -- -- 57
2017-09-22 09:00:00 13 0 Calma 3 Sur 0 -- -- 79
2017-09-22 08:00:00 11.4 -- -- -- -- 0 -- -- 78
2017-09-22 07:00:00 11.9 0 Calma 3 Sur 0 -- -- 77
2017-09-22 06:00:00 12.7 0 Calma 3 Sur 0 -- -- 76
2017-09-22 05:00:00 13.1 0 Calma 2 Este 0 -- -- 75
2017-09-22 04:00:00 13.8 2 Sur 4 Sur 0 -- -- 69
2017-09-22 03:00:00 14.6 0 Calma 4 Norte 0 -- -- 61
2017-09-22 02:00:00 16 0 Calma 3 Este 0 -- -- 57
2017-09-22 01:00:00 18.2 0 Calma 5 Nordeste 0 -- -- 48
2017-09-22 00:00:00 19 2 Norte 5 Sudeste 0 -- -- 40
2017-09-21 23:00:00 20.5 2 Sur 9 Nordeste 0 -- -- 37
2017-09-21 22:00:00 21.2 2 Sudeste 8 Sudeste 0 -- -- 34
2017-09-21 21:00:00 22.3 4 Sudeste 7 Oeste 0 -- -- 33
2017-09-21 20:00:00 26.7 4 Sudoeste 14 Sudoeste 0 -- -- 30
2017-09-21 19:00:00 28.5 7 Oeste 18 Oeste 0 -- -- 24
2017-09-21 18:00:00 30.2 7 Oeste 19 Oeste 0 -- -- 23
2017-09-21 17:00:00 30.1 6 Sudoeste 16 Sudoeste 0 -- -- 23
2017-09-21 16:00:00 29.5 4 Sudoeste 17 Oeste 0 -- -- 22
2017-09-21 15:00:00 29.6 7 Oeste 15 Oeste 0 -- -- 27
2017-09-21 14:00:00 28.5 8 Oeste 17 Oeste 0 -- -- 28
2017-09-21 13:00:00 27.9 6 Sudoeste 17 Sudoeste 0 -- -- 29
2017-09-21 12:00:00 26 5 Sudoeste 10 Sudoeste 0 -- -- 36
2017-09-21 11:00:00 20.8 3 Oeste 6 Noroeste 0 -- -- 54
2017-09-21 10:00:00 17.7 0 Calma 3 Oeste 0 -- -- 62
2017-09-21 09:00:00 12.1 0 Calma 3 Sur 0 -- -- 84
2017-09-21 08:00:00 10.8 0 Calma 2 Sudeste 0 -- -- 84
2017-09-21 07:00:00 11.3 0 Calma 3 Sur 0 -- -- 82
2017-09-21 06:00:00 11.8 0 Calma 4 Sur 0 -- -- 78
2017-09-21 05:00:00 12.5 2 Sur 4 Sur 0 -- -- 76
2017-09-21 04:00:00 13.1 0 Calma 5 Este 0 -- -- 69
2017-09-21 03:00:00 13.7 0 Calma 5 Oeste 0 -- -- 66
2017-09-21 02:00:00 14.7 2 Nordeste 7 Norte 0 -- -- 57
2017-09-21 01:00:00 15.4 0 Calma 3 Norte 0 -- -- 58
2017-09-21 00:00:00 16.7 0 Calma 5 Sur 0 -- -- 56
2017-09-20 23:00:00 17.7 0 Calma 5 Nordeste 0 -- -- 45
2017-09-20 22:00:00 19.7 0 Calma 4 Sudeste 0 -- -- 41
2017-09-20 21:00:00 22.1 2 Sur 9 Oeste 0 -- -- 36
2017-09-20 20:00:00 27.6 5 Oeste 15 Oeste 0 -- -- 28
2017-09-20 19:00:00 29.7 7 Oeste 17 Oeste 0 -- -- 28
2017-09-20 18:00:00 30.6 6 Oeste 14 Oeste 0 -- -- 26
2017-09-20 17:00:00 30.5 5 Oeste 17 Oeste 0 -- -- 26
2017-09-20 16:00:00 30.5 5 Noroeste 15 Oeste 0 -- -- 26
2017-09-20 15:00:00 29.9 5 Sudoeste 14 Oeste 0 -- -- 28
2017-09-20 14:00:00 29 6 Noroeste 12 Oeste 0 -- -- 29
2017-09-20 13:00:00 27.9 6 Oeste 14 Oeste 0 -- -- 34
2017-09-20 12:00:00 25.8 5 Oeste 12 Sudoeste 0 -- -- 38
2017-09-20 11:00:00 20.6 3 Oeste 6 Oeste 0 -- -- 49
2017-09-20 10:00:00 16.6 0 Calma 3 Oeste 0 -- -- 61
2017-09-20 09:00:00 11.2 0 Calma 3 Sudeste 0 -- -- 79
2017-09-20 08:00:00 9.6 0 Calma 3 Sudeste 0 -- -- 79
2017-09-20 07:00:00 9.8 0 Calma 2 Sudeste 0 -- -- 74
2017-09-20 06:00:00 10.2 0 Calma 3 Nordeste 0 -- -- 69
2017-09-20 05:00:00 10.7 2 Nordeste 4 Nordeste 0 -- -- 67
2017-09-20 04:00:00 11.5 0 Calma 3 Nordeste 0 -- -- 66
2017-09-20 03:00:00 12.1 0 Calma 3 Nordeste 0 -- -- 61
2017-09-20 02:00:00 13.1 0 Calma 5 Sur 0 -- -- 60
2017-09-20 01:00:00 13.9 0 Calma 2 Sudeste 0 -- -- 68
2017-09-20 00:00:00 15 0 Calma 6 Sur 0 -- -- 57